Time;durP1;ratioP1;P1;durP2;ratioP2;P2;SDS_P1;SDS_P2;PMS_P1;PMS_P2;Temp;Humidity;BMP_temperature;BMP_pressure;BME280_temperature;BME280_humidity;BME280_pressure;Samples;Min_cycle;Max_cycle;Signal;HPM_P1;HPM_P2
2022/02/12 00:00:46;;;;;;;62.05;20.17;;;;;;;0.08;100.00;101362.81;1720917;83;21625;-91
2022/02/12 00:03:12;;;;;;;60.12;20.48;;;;;;;0.06;100.00;101364.83;1720918;83;20891;-91
2022/02/12 00:05:38;;;;;;;56.98;21.23;;;;;;;0.04;100.00;101369.97;1720564;82;21043;-91
2022/02/12 00:08:05;;;;;;;57.60;20.10;;;;;;;0.01;100.00;101367.16;1720837;83;20958;-90
2022/02/12 00:10:31;;;;;;;58.17;21.85;;;;;;;-0.03;100.00;101373.30;1720441;83;21061;-91
2022/02/12 00:12:57;;;;;;;64.35;21.73;;;;;;;-0.07;100.00;101370.66;1718859;83;22211;-91
2022/02/12 00:15:23;;;;;;;58.75;20.57;;;;;;;-0.10;100.00;101373.64;1730330;80;20958;-91
2022/02/12 00:17:50;;;;;;;65.47;23.32;;;;;;;-0.14;100.00;101364.39;1774416;80;21734;-90
2022/02/12 00:20:17;;;;;;;63.58;21.90;;;;;;;-0.14;100.00;101370.20;1774565;80;21578;-90
2022/02/12 00:22:43;;;;;;;58.65;20.95;;;;;;;-0.15;100.00;101365.87;1774430;80;21026;-91
2022/02/12 00:25:10;;;;;;;65.92;23.12;;;;;;;-0.20;100.00;101375.67;1774594;80;21158;-90
2022/02/12 00:27:37;;;;;;;67.10;23.70;;;;;;;-0.22;100.00;101371.03;1774652;80;21517;-90
2022/02/12 00:30:05;;;;;;;54.42;20.27;;;;;;;-0.20;100.00;101359.78;1774185;80;20979;-90
2022/02/12 00:32:31;;;;;;;70.95;23.32;;;;;;;-0.16;100.00;101366.88;1774354;80;20986;-90
2022/02/12 00:34:57;;;;;;;62.38;22.87;;;;;;;-0.18;100.00;101362.24;1774512;80;20867;-90
2022/02/12 00:37:25;;;;;;;68.40;23.30;;;;;;;-0.18;100.00;101357.77;1774307;80;21798;-90
2022/02/12 00:39:51;;;;;;;64.42;22.42;;;;;;;-0.16;100.00;101360.26;1773948;80;21478;-90
2022/02/12 00:42:18;;;;;;;64.50;22.93;;;;;;;-0.13;100.00;101363.89;1774553;80;20870;-90
2022/02/12 00:44:44;;;;;;;63.08;22.35;;;;;;;-0.08;100.00;101363.70;1774127;80;20974;-91
2022/02/12 00:47:10;;;;;;;68.40;22.70;;;;;;;-0.10;100.00;101361.72;1750475;80;21604;-91
2022/02/12 00:49:37;;;;;;;67.42;22.87;;;;;;;-0.10;100.00;101363.05;1774193;80;21111;-91
2022/02/12 00:52:03;;;;;;;71.53;23.70;;;;;;;-0.06;100.00;101361.73;1774311;80;21045;-90
2022/02/12 00:54:32;;;;;;;77.08;24.25;;;;;;;-0.02;100.00;101358.23;1774338;80;21029;-90
2022/02/12 00:56:58;;;;;;;73.42;24.47;;;;;;;0.00;100.00;101362.87;1773958;80;21080;-91
2022/02/12 00:59:24;;;;;;;71.85;24.30;;;;;;;0.04;100.00;101369.97;1750962;79;21084;-90
2022/02/12 01:01:50;;;;;;;80.05;26.27;;;;;;;0.06;100.00;101370.13;1750683;80;21785;-90
2022/02/12 01:04:16;;;;;;;87.12;29.15;;;;;;;0.10;100.00;101378.55;1774281;80;20843;-90
2022/02/12 01:06:42;;;;;;;79.45;26.60;;;;;;;0.12;100.00;101377.39;1774458;80;21001;-90
2022/02/12 01:09:08;;;;;;;88.40;30.17;;;;;;;0.16;100.00;101381.84;1774439;80;20866;-90
2022/02/12 01:11:34;;;;;;;95.32;30.12;;;;;;;0.19;100.00;101378.34;1774344;80;20923;-90
2022/02/12 01:14:00;;;;;;;94.87;28.73;;;;;;;0.23;100.00;101373.52;1774429;80;21231;-90
2022/02/12 01:16:26;;;;;;;75.30;26.15;;;;;;;0.24;100.00;101375.19;1774333;80;21026;-90
2022/02/12 01:18:52;;;;;;;83.17;27.80;;;;;;;0.22;100.00;101379.32;1774462;80;21012;-90
2022/02/12 01:21:19;;;;;;;63.52;22.05;;;;;;;0.23;100.00;101380.97;1774351;80;20867;-90
2022/02/12 01:23:49;;;;;;;77.62;25.57;;;;;;;0.26;100.00;101372.34;1774049;80;21041;-90
2022/02/12 01:26:15;;;;;;;79.55;26.95;;;;;;;0.27;100.00;101367.39;1774234;80;21555;-91
2022/02/12 01:28:41;;;;;;;82.22;27.80;;;;;;;0.26;100.00;101375.82;1774432;80;20953;-90
2022/02/12 01:31:07;;;;;;;86.95;28.52;;;;;;;0.22;100.00;101366.06;1774417;80;21514;-91
2022/02/12 01:33:33;;;;;;;97.88;32.10;;;;;;;0.25;100.00;101379.98;1774518;80;20859;-90
2022/02/12 01:35:59;;;;;;;102.87;30.77;;;;;;;0.26;100.00;101371.84;1774383;80;21711;-90
2022/02/12 01:38:27;;;;;;;91.78;30.60;;;;;;;0.27;100.00;101376.17;1768697;80;21036;-90
2022/02/12 01:40:53;;;;;;;93.17;30.12;;;;;;;0.29;100.00;101370.67;1773496;80;21585;-91
2022/02/12 01:43:18;;;;;;;92.60;29.80;;;;;;;0.32;100.00;101376.45;1774444;80;20954;-90
2022/02/12 01:45:44;;;;;;;94.80;31.40;;;;;;;0.35;100.00;101375.28;1774334;80;20879;-91
2022/02/12 01:48:11;;;;;;;91.47;29.63;;;;;;;0.36;100.00;101369.83;1774346;80;20959;-91
2022/02/12 01:50:37;;;;;;;94.42;29.87;;;;;;;0.39;100.00;101372.63;1773913;80;21159;-91
2022/02/12 01:53:03;;;;;;;85.22;28.12;;;;;;;0.38;100.00;101378.91;1774299;80;20974;-91
2022/02/12 01:55:30;;;;;;;85.38;29.02;;;;;;;0.38;100.00;101378.91;1774135;80;20998;-90
2022/02/12 01:57:55;;;;;;;91.32;30.80;;;;;;;0.38;100.00;101379.77;1774328;80;21026;-90
2022/02/12 02:00:22;;;;;;;79.15;28.95;;;;;;;0.37;100.00;101374.62;1774516;80;21688;-91
2022/02/12 02:02:48;;;;;;;98.58;30.82;;;;;;;0.41;100.00;101372.79;1773932;80;21320;-90
2022/02/12 02:05:17;;;;;;;83.70;27.42;;;;;;;0.44;100.00;101369.79;1774181;80;20988;-91
2022/02/12 02:07:44;;;;;;;83.25;29.55;;;;;;;0.45;100.00;101368.78;1774433;80;21033;-91
2022/02/12 02:10:14;;;;;;;87.50;29.37;;;;;;;0.48;100.00;101366.79;1774298;80;20990;-91
2022/02/12 02:12:40;;;;;;;95.87;32.15;;;;;;;0.50;100.00;101370.07;1774292;80;21077;-91
2022/02/12 02:15:08;;;;;;;82.02;28.73;;;;;;;0.54;100.00;101374.05;1774376;80;21130;-90
2022/02/12 02:17:34;;;;;;;80.80;28.38;;;;;;;0.57;100.00;101375.02;1774361;80;20974;-91
2022/02/12 02:20:06;;;;;;;81.85;28.67;;;;;;;0.59;100.00;101382.28;1774686;80;20950;-91
2022/02/12 02:22:55;;;;;;;87.47;29.90;;;;;;;0.61;100.00;101382.44;1720401;82;21045;-90
2022/02/12 02:25:22;;;;;;;98.55;30.45;;;;;;;0.65;100.00;101378.95;1721001;83;21609;-91
2022/02/12 02:27:49;;;;;;;77.58;26.68;;;;;;;0.71;100.00;101385.36;1720854;83;21310;-89
2022/02/12 02:30:19;;;;;;;75.40;26.70;;;;;;;0.69;100.00;101377.59;1721191;83;21610;-91
2022/02/12 02:32:46;;;;;;;82.78;28.17;;;;;;;0.70;100.00;101375.77;1641986;87;21100;-91
2022/02/12 02:35:15;;;;;;;90.22;30.60;;;;;;;0.70;100.00;101380.56;1642221;87;21096;-90
2022/02/12 02:37:42;;;;;;;92.70;31.77;;;;;;;0.72;100.00;101374.59;1641895;87;21204;-91
2022/02/12 02:40:15;;;;;;;102.45;33.60;;;;;;;0.74;100.00;101374.43;1642061;87;21131;-90
2022/02/12 02:42:46;;;;;;;87.45;29.65;;;;;;;0.73;100.00;101372.75;1601336;86;21179;-91
2022/02/12 02:45:13;;;;;;;93.97;29.75;;;;;;;0.73;100.00;101371.43;1601570;88;21114;-91
2022/02/12 02:47:43;;;;;;;88.40;31.75;;;;;;;0.76;100.00;101377.20;1601506;88;21179;-91
2022/02/12 02:56:02;;;;;;;92.40;31.15;;;;;;;0.87;100.00;101372.00;1601237;88;21661;-91
2022/02/12 02:58:37;;;;;;;100.00;32.45;;;;;;;0.83;100.00;101377.34;1601406;88;21089;-91
2022/02/12 03:01:13;;;;;;;90.92;31.12;;;;;;;0.81;100.00;101378.84;1571117;90;21609;-91
2022/02/12 03:03:41;;;;;;;89.92;30.70;;;;;;;0.79;100.00;101368.89;1571267;89;21071;-91
2022/02/12 03:06:09;;;;;;;95.10;31.15;;;;;;;0.80;100.00;101365.26;1560126;89;21161;-91
2022/02/12 03:08:36;;;;;;;99.67;32.65;;;;;;;0.85;100.00;101364.70;1556136;91;21124;-91
2022/02/12 03:11:03;;;;;;;89.45;30.57;;;;;;;0.89;100.00;101372.16;1555816;91;21160;-91
2022/02/12 03:13:29;;;;;;;85.22;30.30;;;;;;;0.96;100.00;101378.08;1556037;91;21118;-91
2022/02/12 03:15:55;;;;;;;88.05;30.30;;;;;;;1.00;100.00;101371.41;1555909;90;21654;-91
2022/02/12 03:18:21;;;;;;;91.55;29.82;;;;;;;1.05;100.00;101375.17;1557949;88;21181;-91
2022/02/12 03:20:47;;;;;;;90.40;29.67;;;;;;;1.09;100.00;101367.70;1599772;88;21000;-91
2022/02/12 03:23:13;;;;;;;89.80;30.12;;;;;;;1.11;100.00;101366.50;1600070;88;21056;-90
2022/02/12 03:25:40;;;;;;;92.50;30.15;;;;;;;1.16;100.00;101362.50;1600215;88;20996;-91
2022/02/12 03:28:07;;;;;;;79.32;28.42;;;;;;;1.18;100.00;101356.49;1599874;88;21652;-91
2022/02/12 03:30:37;;;;;;;90.12;29.98;;;;;;;1.17;100.00;101354.85;1581142;89;21164;-91
2022/02/12 03:33:04;;;;;;;85.77;29.40;;;;;;;1.17;100.00;101353.02;1577831;90;21043;-92
2022/02/12 03:35:32;;;;;;;89.37;29.37;;;;;;;1.20;100.00;101346.02;1577871;90;21280;-91
2022/02/12 03:38:26;;;;;;;87.22;29.42;;;;;;;1.23;100.00;101346.98;1578098;90;21071;-91
2022/02/12 03:40:57;;;;;;;83.62;28.90;;;;;;;1.22;100.00;101344.53;1607730;89;21251;-92
2022/02/12 03:43:23;;;;;;;86.35;28.35;;;;;;;1.23;100.00;101344.84;1607616;88;21098;-92
2022/02/12 03:45:49;;;;;;;88.03;29.05;;;;;;;1.26;100.00;101343.16;1607546;89;21416;-91
2022/02/12 03:48:15;;;;;;;85.77;30.12;;;;;;;1.25;100.00;101338.86;1607965;89;20954;-91
2022/02/12 03:50:42;;;;;;;92.60;29.37;;;;;;;1.27;100.00;101332.37;1607688;89;20934;-92
2022/02/12 03:53:09;;;;;;;85.22;29.80;;;;;;;1.30;100.00;101322.72;1607548;89;21049;-91
2022/02/12 03:55:39;;;;;;;82.62;27.80;;;;;;;1.30;100.00;101326.70;1607952;89;21676;-91
2022/02/12 03:58:09;;;;;;;85.12;29.05;;;;;;;1.29;100.00;101321.55;1607604;89;21061;-91
2022/02/12 04:00:37;;;;;;;88.50;28.65;;;;;;;1.32;100.00;101319.86;1568959;91;21148;-91
2022/02/12 04:03:04;;;;;;;78.22;27.45;;;;;;;1.34;100.00;101324.50;1568755;91;21023;-91
2022/02/12 04:05:31;;;;;;;82.57;29.60;;;;;;;1.38;100.00;101323.62;1599429;88;21635;-91
2022/02/12 04:07:58;;;;;;;87.97;28.85;;;;;;;1.40;100.00;101317.13;1612209;88;21173;-91
2022/02/12 04:10:24;;;;;;;90.80;30.02;;;;;;;1.45;100.00;101321.41;1611952;88;21088;-91
2022/02/12 04:12:52;;;;;;;90.40;30.65;;;;;;;1.47;100.00;101320.73;1611677;88;21664;-91
2022/02/12 04:15:19;;;;;;;84.45;29.20;;;;;;;1.51;100.00;101322.52;1612022;88;21127;-91
2022/02/12 04:17:46;;;;;;;87.17;29.65;;;;;;;1.54;100.00;101320.81;1612294;88;21709;-91
2022/02/12 04:20:15;;;;;;;82.85;28.05;;;;;;;1.55;100.00;101317.97;1612162;88;21204;-91
2022/02/12 04:22:42;;;;;;;84.28;28.00;;;;;;;1.56;100.00;101318.81;1612040;88;20948;-91
2022/02/12 04:25:12;;;;;;;79.53;27.80;;;;;;;1.57;100.00;101321.27;1612207;88;21160;-91
2022/02/12 04:27:38;;;;;;;81.22;28.50;;;;;;;1.60;100.00;101317.43;1648020;86;21629;-91
2022/02/12 04:30:06;;;;;;;81.78;28.12;;;;;;;1.62;100.00;101310.11;1674550;85;21069;-90
2022/02/12 04:32:34;;;;;;;85.20;29.25;;;;;;;1.65;100.00;101300.45;1662634;85;22071;-91
2022/02/12 04:35:00;;;;;;;81.53;27.10;;;;;;;1.67;100.00;101303.72;1662518;86;21038;-91
2022/02/12 04:37:27;;;;;;;79.05;27.02;;;;;;;1.65;100.00;101297.79;1662679;86;21117;-91
2022/02/12 04:39:53;;;;;;;77.50;27.32;;;;;;;1.65;100.00;101299.59;1662833;86;21551;-90
2022/02/12 04:42:19;;;;;;;86.87;26.60;;;;;;;1.65;100.00;101295.13;1662673;86;20896;-91
2022/02/12 04:44:49;;;;;;;82.30;27.07;;;;;;;1.64;100.00;101294.80;1674699;85;21777;-90
2022/02/12 04:47:17;;;;;;;74.92;26.65;;;;;;;1.64;100.00;101301.95;1662593;85;21471;-91
2022/02/12 04:49:44;;;;;;;69.53;24.92;;;;;;;1.65;100.00;101303.58;1639838;86;21617;-91
2022/02/12 04:52:13;;;;;;;69.97;25.02;;;;;;;1.68;100.00;101298.75;1662697;86;21018;-91
2022/02/12 04:54:39;;;;;;;67.47;25.48;;;;;;;1.71;100.00;101290.41;1662784;86;21214;-91
2022/02/12 04:57:06;;;;;;;70.25;24.82;;;;;;;1.74;100.00;101286.56;1704300;80;21138;-91
2022/02/12 04:59:32;;;;;;;71.07;25.50;;;;;;;1.79;100.00;101286.81;1782286;80;21010;-90
2022/02/12 05:01:58;;;;;;;73.00;24.50;;;;;;;1.84;100.00;101283.62;1782614;80;21046;-90
2022/02/12 05:04:24;;;;;;;72.75;25.08;;;;;;;1.87;100.00;101280.59;1782618;80;20863;-91
2022/02/12 05:06:52;;;;;;;70.62;25.25;;;;;;;1.91;100.00;101277.87;1786691;80;21005;-91
2022/02/12 05:09:19;;;;;;;72.85;24.10;;;;;;;1.92;100.00;101275.04;1787895;79;21167;-86
2022/02/12 05:11:48;;;;;;;62.65;22.95;;;;;;;1.98;100.00;101272.14;1787900;80;21511;-87
2022/02/12 05:14:15;;;;;;;79.60;25.95;;;;;;;2.01;100.00;101266.45;1787877;80;21502;-86
2022/02/12 05:16:41;;;;;;;81.97;27.67;;;;;;;2.03;100.00;101267.10;1788068;79;21017;-86
2022/02/12 05:19:08;;;;;;;71.67;24.55;;;;;;;2.03;100.00;101270.58;1782746;80;21028;-87
2022/02/12 05:21:35;;;;;;;72.67;24.40;;;;;;;2.04;100.00;101266.89;1787495;80;22016;-86
2022/02/12 05:24:02;;;;;;;70.00;25.12;;;;;;;2.04;100.00;101262.09;1787923;80;20994;-88
2022/02/12 05:26:30;;;;;;;71.00;24.55;;;;;;;2.10;100.00;101257.87;1788040;80;21017;-87
2022/02/12 05:28:56;;;;;;;70.97;25.43;;;;;;;2.13;100.00;101258.81;1788024;80;21553;-87
2022/02/12 05:31:23;;;;;;;69.58;25.27;;;;;;;2.15;100.00;101257.63;1787938;80;20977;-89
2022/02/12 05:33:49;;;;;;;71.57;24.47;;;;;;;2.19;100.00;101262.05;1787619;80;21213;-88
2022/02/12 05:36:15;;;;;;;66.40;24.92;;;;;;;2.24;100.00;101260.48;1787620;80;21005;-88
2022/02/12 05:38:42;;;;;;;68.78;24.82;;;;;;;2.28;100.00;101260.41;1788052;80;22201;-88
2022/02/12 05:41:11;;;;;;;66.62;23.55;;;;;;;2.32;100.00;101257.37;1787904;80;21017;-88
2022/02/12 05:43:38;;;;;;;69.65;24.52;;;;;;;2.37;100.00;101253.13;1751005;81;20936;-88
2022/02/12 05:46:05;;;;;;;62.50;22.77;;;;;;;2.43;100.00;101251.55;1750602;82;21265;-88
2022/02/12 05:48:33;;;;;;;68.02;23.22;;;;;;;2.49;100.00;101254.78;1750622;82;20991;-87
2022/02/12 05:50:59;;;;;;;69.45;24.92;;;;;;;2.55;100.00;101249.21;1750297;82;20983;-91
2022/02/12 05:53:25;;;;;;;66.17;23.25;;;;;;;2.60;100.00;101240.16;1750663;82;21577;-90
2022/02/12 05:55:52;;;;;;;65.30;23.67;;;;;;;2.63;100.00;101239.27;1750893;82;21097;-92
2022/02/12 05:58:18;;;;;;;62.78;23.30;;;;;;;2.68;100.00;101243.52;1750893;82;21062;-91
2022/02/12 06:00:45;;;;;;;65.05;22.42;;;;;;;2.75;100.00;101247.55;1750871;82;21071;-92
2022/02/12 06:03:11;;;;;;;61.70;23.20;;;;;;;2.81;100.00;101244.12;1750963;82;21097;-91
2022/02/12 06:05:37;;;;;;;63.85;22.55;;;;;;;2.88;100.00;101238.36;1749437;81;20900;-91
2022/02/12 06:08:05;;;;;;;60.05;20.80;;;;;;;2.93;100.00;101239.09;1745318;82;21085;-91
2022/02/12 06:10:34;;;;;;;57.98;20.68;;;;;;;2.98;100.00;101233.20;1745293;82;21174;-91
2022/02/12 06:13:00;;;;;;;65.90;20.35;;;;;;;3.01;100.00;101230.97;1736060;82;21059;-90
2022/02/12 06:15:27;;;;;;;60.12;20.62;;;;;;;3.06;100.00;101235.69;1731808;81;21050;-89
2022/02/12 06:17:53;;;;;;;47.55;17.55;;;;;;;3.12;100.00;101231.77;1723485;82;21075;-89
2022/02/12 06:20:19;;;;;;;46.48;16.37;;;;;;;3.17;100.00;101237.31;1732501;81;20999;-89
2022/02/12 06:22:45;;;;;;;49.13;17.15;;;;;;;3.19;100.00;101233.95;1731611;82;21001;-88
2022/02/12 06:25:12;;;;;;;47.33;16.45;;;;;;;3.23;100.00;101236.22;1720296;82;21117;-87
2022/02/12 06:27:38;;;;;;;43.85;16.27;;;;;;;3.25;100.00;101240.85;1725864;82;21649;-87
2022/02/12 06:30:22;;;;;;;44.80;16.40;;;;;;;3.26;100.00;101243.82;1720674;81;20884;-87
2022/02/12 06:32:48;;;;;;;44.60;17.32;;;;;;;3.26;100.00;101234.50;1743231;80;21619;-87
2022/02/12 06:35:14;;;;;;;48.87;17.75;;;;;;;3.30;100.00;101237.92;1744933;80;21018;-87
2022/02/12 06:37:40;;;;;;;46.80;17.05;;;;;;;3.35;100.00;101236.83;1744906;82;21574;-87
2022/02/12 06:40:07;;;;;;;53.33;18.57;;;;;;;3.38;100.00;101235.11;1765739;79;20884;-87
2022/02/12 06:42:32;;;;;;;51.55;17.20;;;;;;;3.37;100.00;101231.30;1789948;79;21105;-86
2022/02/12 06:44:58;;;;;;;47.25;17.62;;;;;;;3.38;100.00;101228.93;1797578;78;20848;-87
2022/02/12 06:47:24;;;;;;;46.45;16.70;;;;;;;3.45;100.00;101224.99;1793368;79;21135;-86
2022/02/12 06:49:51;;;;;;;49.98;16.87;;;;;;;3.49;100.00;101220.91;1795386;79;20880;-87
2022/02/12 06:52:17;;;;;;;45.78;17.80;;;;;;;3.53;100.00;101219.48;1790319;79;21555;-86
2022/02/12 06:54:43;;;;;;;48.30;16.90;;;;;;;3.60;100.00;101219.02;1784989;78;20876;-87
2022/02/12 06:57:09;;;;;;;51.60;16.80;;;;;;;3.67;100.00;101221.19;1796272;79;20980;-85
2022/02/12 06:59:36;;;;;;;50.88;18.50;;;;;;;3.70;100.00;101218.12;1796730;79;21955;-87
2022/02/12 07:02:03;;;;;;;46.13;17.37;;;;;;;3.70;100.00;101215.45;1793134;79;21015;-86
2022/02/12 07:04:30;;;;;;;49.60;17.35;;;;;;;3.70;100.00;101214.64;1786016;79;21068;-86
2022/02/12 07:06:56;;;;;;;47.53;18.15;;;;;;;3.70;100.00;101207.98;1777032;79;21070;-86
2022/02/12 07:09:22;;;;;;;50.33;18.20;;;;;;;3.75;100.00;101214.88;1771809;80;21047;-86
2022/02/12 07:11:48;;;;;;;51.15;18.57;;;;;;;3.80;100.00;101211.92;1771164;79;21056;-86
2022/02/12 07:14:15;;;;;;;54.58;18.48;;;;;;;3.84;100.00;101209.67;1772572;79;37367;-86
2022/02/12 07:16:43;;;;;;;55.60;18.27;;;;;;;3.86;100.00;101206.30;1767160;79;21967;-86
2022/02/12 07:19:09;;;;;;;57.93;20.62;;;;;;;3.86;100.00;101208.97;1770882;79;21497;-86
2022/02/12 07:21:35;;;;;;;59.05;19.52;;;;;;;3.87;100.00;101213.27;1778757;80;20991;-86
2022/02/12 07:24:02;;;;;;;53.38;19.02;;;;;;;3.90;100.00;101215.53;1776054;80;21094;-86
2022/02/12 07:26:28;;;;;;;53.90;20.02;;;;;;;3.92;100.00;101216.69;1777756;79;20987;-86
2022/02/12 07:28:54;;;;;;;54.83;18.92;;;;;;;3.96;100.00;101213.40;1779646;79;21055;-86
2022/02/12 07:31:20;;;;;;;60.80;21.05;;;;;;;4.03;100.00;101210.26;1776323;80;21551;-85
2022/02/12 07:33:46;;;;;;;61.53;23.02;;;;;;;4.07;100.00;101213.34;1775768;80;20995;-85
2022/02/12 07:36:12;;;;;;;67.42;22.32;;;;;;;4.08;100.00;101213.64;1767983;80;21152;-85
2022/02/12 07:38:39;;;;;;;71.62;23.05;;;;;;;4.10;100.00;101214.27;1769888;80;21061;-85
2022/02/12 07:41:06;;;;;;;68.12;22.27;;;;;;;4.12;100.00;101210.05;1767525;81;21300;-85
2022/02/12 07:43:32;;;;;;;66.82;23.07;;;;;;;4.15;100.00;101222.98;1760761;80;21093;-85
2022/02/12 07:46:00;;;;;;;80.25;25.43;;;;;;;4.16;100.00;101215.30;1762479;80;20966;-85
2022/02/12 07:48:26;;;;;;;71.20;24.37;;;;;;;4.19;100.00;101215.72;1781065;80;22133;-85
2022/02/12 07:50:54;;;;;;;77.05;24.40;;;;;;;4.24;100.00;101213.27;1781865;80;20976;-86
2022/02/12 07:53:23;;;;;;;77.50;25.12;;;;;;;4.28;100.00;101219.84;1775349;80;21105;-85
2022/02/12 07:55:49;;;;;;;94.05;28.77;;;;;;;4.29;100.00;101217.50;1757741;81;21058;-85
2022/02/12 07:58:15;;;;;;;90.20;28.70;;;;;;;4.34;100.00;101214.20;1765994;80;21520;-85
2022/02/12 08:00:41;;;;;;;94.03;29.75;;;;;;;4.37;100.00;101216.46;1782252;80;22002;-85
2022/02/12 08:03:08;;;;;;;97.08;31.27;;;;;;;4.39;100.00;101216.28;1781452;80;21034;-85
2022/02/12 08:05:35;;;;;;;108.37;34.55;;;;;;;4.40;100.00;101218.72;1773570;79;21083;-85
2022/02/12 08:08:03;;;;;;;114.92;36.65;;;;;;;4.47;100.00;101216.05;1786989;79;21031;-85
2022/02/12 08:13:14;;;;;;;105.22;36.73;;;;;;;4.54;100.00;101212.89;1748142;79;21023;-83
2022/02/12 08:15:40;;;;;;;114.97;36.88;;;;;;;4.55;100.00;101219.34;1776497;79;21059;-83
2022/02/12 08:18:06;;;;;;;111.65;35.40;;;;;;;4.55;100.00;101220.69;1778557;79;21003;-83
2022/02/12 08:20:33;;;;;;;114.52;33.30;;;;;;;4.65;100.00;101224.30;1783568;79;20848;-82
2022/02/12 08:22:58;;;;;;;98.40;31.85;;;;;;;4.72;100.00;101217.63;1795547;79;21488;-82
2022/02/12 08:25:24;;;;;;;105.15;34.25;;;;;;;4.81;100.00;101218.23;1779017;79;21115;-82
2022/02/12 08:27:51;;;;;;;103.60;32.15;;;;;;;4.90;100.00;101221.00;1758861;80;20955;-82
2022/02/12 08:30:17;;;;;;;117.90;35.38;;;;;;;4.96;100.00;101220.98;1774479;78;20992;-82
2022/02/12 08:32:43;;;;;;;112.05;38.33;;;;;;;4.94;100.00;101223.06;1799335;79;21265;-83
2022/02/12 08:35:14;;;;;;;119.53;37.67;;;;;;;4.98;100.00;101224.80;1802565;79;20999;-83
2022/02/12 08:37:43;;;;;;;116.62;37.60;;;;;;;4.99;100.00;101231.77;1796881;79;21098;-84
2022/02/12 08:40:22;;;;;;;122.15;39.48;;;;;;;4.98;100.00;101224.80;1785141;80;21034;-84
2022/02/12 08:42:49;;;;;;;109.65;35.35;;;;;;;4.96;100.00;101229.00;1784920;80;21023;-84
2022/02/12 08:45:17;;;;;;;104.10;34.73;;;;;;;4.92;100.00;101231.79;1785218;80;20988;-84
2022/02/12 08:47:46;;;;;;;107.22;35.43;;;;;;;4.92;100.00;101227.78;1788324;79;21042;-84
2022/02/12 08:50:14;;;;;;;105.65;34.43;;;;;;;4.94;100.00;101231.08;1784839;78;21106;-85
2022/02/12 08:52:40;;;;;;;98.00;32.88;;;;;;;4.94;100.00;101224.40;1780167;79;20995;-86
2022/02/12 08:55:08;;;;;;;112.17;33.67;;;;;;;4.96;100.00;101229.52;1781472;79;21046;-85
2022/02/12 08:57:35;;;;;;;94.35;32.08;;;;;;;4.96;100.00;101222.33;1788606;79;21480;-85
2022/02/12 09:00:03;;;;;;;97.53;31.30;;;;;;;5.01;100.00;101235.07;1784778;80;21058;-85
2022/02/12 09:02:29;;;;;;;99.28;31.60;;;;;;;5.02;100.00;101228.69;1792473;79;21547;-86
2022/02/12 09:04:55;;;;;;;94.85;31.25;;;;;;;5.06;100.00;101223.75;1789810;78;21039;-85
2022/02/12 09:07:21;;;;;;;97.37;33.48;;;;;;;5.08;100.00;101225.70;1797797;79;20888;-85
2022/02/12 09:09:47;;;;;;;99.87;31.07;;;;;;;5.13;100.00;101233.92;1806380;79;21035;-86
2022/02/12 09:12:13;;;;;;;99.42;32.25;;;;;;;5.14;100.00;101235.55;1781332;79;21015;-86
2022/02/12 09:14:40;;;;;;;87.90;29.32;;;;;;;5.15;100.00;101230.54;1806337;79;21116;-85
2022/02/12 09:17:06;;;;;;;91.08;31.77;;;;;;;5.20;100.00;101238.73;1805885;79;21035;-85
2022/02/12 09:19:33;;;;;;;86.02;30.00;;;;;;;5.19;100.00;101241.11;1797828;78;21547;-86
2022/02/12 09:21:59;;;;;;;98.25;32.75;;;;;;;5.18;100.00;101242.96;1805833;79;21434;-85
2022/02/12 09:24:25;;;;;;;94.77;31.68;;;;;;;5.17;100.00;101251.17;1803778;78;21023;-85
2022/02/12 09:26:52;;;;;;;95.22;33.53;;;;;;;5.17;100.00;101248.50;1769505;79;21096;-86
2022/02/12 09:29:18;;;;;;;103.47;32.10;;;;;;;5.20;100.00;101244.89;1797709;79;21031;-84
2022/02/12 09:31:44;;;;;;;94.72;31.52;;;;;;;5.23;100.00;101251.19;1788939;78;21489;-84
2022/02/12 09:34:10;;;;;;;93.00;32.42;;;;;;;5.21;100.00;101247.08;1789438;79;21102;-85
2022/02/12 09:36:40;;;;;;;103.05;33.67;;;;;;;5.22;100.00;101236.68;1787061;78;22002;-85
2022/02/12 09:39:06;;;;;;;106.67;33.80;;;;;;;5.21;100.00;101234.53;1790924;78;21119;-85
2022/02/12 09:41:34;;;;;;;90.22;31.42;;;;;;;5.22;100.00;101234.01;1755806;78;21125;-86
2022/02/12 09:44:00;;;;;;;103.53;33.53;;;;;;;5.24;100.00;101227.44;1780706;78;21017;-85
2022/02/12 09:47:03;;;;;;;100.78;33.73;;;;;;;5.29;100.00;101229.46;1791518;78;21595;-85
2022/02/12 09:49:29;;;;;;;92.40;31.85;;;;;;;5.34;100.00;101235.53;1775306;78;21022;-85
2022/02/12 09:52:00;;;;;;;101.35;33.42;;;;;;;5.33;100.00;101229.89;1790562;78;21027;-86
2022/02/12 09:54:25;;;;;;;101.80;32.40;;;;;;;5.34;100.00;101222.98;1783577;79;21567;-86
2022/02/12 09:56:51;;;;;;;94.52;31.70;;;;;;;5.45;100.00;101233.55;1780568;78;21028;-87
2022/02/12 09:59:18;;;;;;;96.75;32.70;;;;;;;5.54;100.00;101232.80;1760153;79;21081;-86
2022/02/12 10:01:44;;;;;;;102.45;32.90;;;;;;;5.55;100.00;101225.89;1787180;78;21027;-85
2022/02/12 10:04:18;;;;;;;89.22;32.55;;;;;;;5.62;100.00;101223.22;1787764;78;21464;-86
2022/02/12 10:06:46;;;;;;;86.97;29.67;;;;;;;5.63;100.00;101222.19;1788149;79;21000;-86
2022/02/12 10:09:12;;;;;;;88.35;31.20;;;;;;;5.65;100.00;101222.28;1801649;79;20975;-87
2022/02/12 10:11:48;;;;;;;91.90;31.12;;;;;;;5.64;100.00;101230.50;1795773;79;21457;-86
2022/02/12 10:14:18;;;;;;;91.22;30.68;;;;;;;5.58;100.00;101235.36;1810310;78;21078;-86
2022/02/12 10:19:38;;;;;;;89.20;28.87;;;;;;;5.58;100.00;101234.02;1690571;84;21112;-87
2022/02/12 10:22:16;;;;;;;89.03;30.65;;;;;;;5.58;100.00;101230.00;1658504;85;21105;-86
2022/02/12 10:25:03;;;;;;;81.78;28.30;;;;;;;5.53;100.00;101225.80;1649525;86;20983;-87
2022/02/12 10:27:27;;;;;;;84.17;27.67;;;;;;;5.56;100.00;101225.38;1621993;87;21104;-87
2022/02/12 10:29:55;;;;;;;75.45;26.40;;;;;;;5.60;100.00;101234.12;1646132;85;21293;-85
2022/02/12 10:32:24;;;;;;;74.20;26.85;;;;;;;5.57;100.00;101236.39;1616538;87;21084;-86
2022/02/12 10:34:50;;;;;;;75.83;26.00;;;;;;;5.53;100.00;101241.84;1643301;87;21033;-86
2022/02/12 10:37:20;;;;;;;79.05;26.15;;;;;;;5.46;100.00;101251.22;1643270;87;20993;-86
2022/02/12 10:39:56;;;;;;;84.85;28.35;;;;;;;5.40;100.00;101251.54;1639085;87;21494;-86
2022/02/12 10:42:26;;;;;;;70.80;24.75;;;;;;;5.35;100.00;101255.34;1641283;86;21271;-86
2022/02/12 10:44:52;;;;;;;81.30;25.82;;;;;;;5.33;100.00;101250.75;1618562;87;21106;-87
2022/02/12 10:47:18;;;;;;;67.70;25.62;;;;;;;5.32;100.00;101249.60;1641233;87;21029;-88
2022/02/12 10:49:47;;;;;;;79.42;26.50;;;;;;;5.28;100.00;101258.56;1640786;86;21156;-86
2022/02/12 10:52:13;;;;;;;73.40;24.70;;;;;;;5.24;100.00;101254.16;1641322;86;21033;-87
2022/02/12 10:54:49;;;;;;;78.52;25.55;;;;;;;5.23;100.00;101255.68;1643263;86;21126;-87
2022/02/12 10:57:18;;;;;;;68.33;23.85;;;;;;;5.19;100.00;101259.81;1640910;87;21026;-87
2022/02/12 10:59:44;;;;;;;70.47;24.27;;;;;;;5.17;100.00;101264.01;1643191;87;21005;-87
2022/02/12 11:02:15;;;;;;;68.40;23.32;;;;;;;5.20;100.00;101260.92;1643435;87;21086;-86
2022/02/12 11:04:43;;;;;;;69.05;24.72;;;;;;;5.20;100.00;101258.25;1644515;86;20993;-87
2022/02/12 11:07:13;;;;;;;66.45;22.98;;;;;;;5.18;100.00;101255.50;1621126;87;21958;-86
2022/02/12 11:09:40;;;;;;;65.22;22.67;;;;;;;5.17;100.00;101260.00;1654055;81;21072;-86
2022/02/12 11:12:07;;;;;;;63.58;23.32;;;;;;;5.15;100.00;101265.27;1692129;83;20971;-87
2022/02/12 11:14:36;;;;;;;54.13;20.68;;;;;;;5.14;100.00;101268.44;1720708;82;21136;-87
2022/02/12 11:17:17;;;;;;;57.00;21.15;;;;;;;5.16;100.00;101266.91;1692056;84;20979;-88
2022/02/12 11:19:44;;;;;;;60.25;21.37;;;;;;;5.13;100.00;101269.99;1698215;83;21924;-87